sensor_id;sensor_type;location;lat;lon;timestamp;pressure;altitude;pressure_sealevel;temperature;humidity
63097;BME280;49185;42.320;23.198;2023-05-08T00:00:16;95010.34;;;11.58;80.62
63097;BME280;49185;42.320;23.198;2023-05-08T00:02:41;95008.53;;;11.42;81.09
63097;BME280;49185;42.320;23.198;2023-05-08T00:05:07;95018.38;;;11.41;81.61
63097;BME280;49185;42.320;23.198;2023-05-08T00:07:35;95011.25;;;11.25;81.45
63097;BME280;49185;42.320;23.198;2023-05-08T00:10:00;95016.81;;;11.23;81.93
63097;BME280;49185;42.320;23.198;2023-05-08T00:12:25;95011.81;;;11.27;81.76
63097;BME280;49185;42.320;23.198;2023-05-08T00:14:51;95011.41;;;11.18;82.06
63097;BME280;49185;42.320;23.198;2023-05-08T00:17:16;95006.41;;;11.21;82.72
63097;BME280;49185;42.320;23.198;2023-05-08T00:19:42;95016.81;;;11.06;83.59
63097;BME280;49185;42.320;23.198;2023-05-08T00:22:07;95015.31;;;10.93;83.74
63097;BME280;49185;42.320;23.198;2023-05-08T00:24:32;95010.38;;;10.85;84.46
63097;BME280;49185;42.320;23.198;2023-05-08T00:26:58;95018.47;;;10.73;84.54
63097;BME280;49185;42.320;23.198;2023-05-08T00:29:23;95015.00;;;10.56;85.62
63097;BME280;49185;42.320;23.198;2023-05-08T00:31:48;95020.69;;;10.48;86.88
63097;BME280;49185;42.320;23.198;2023-05-08T00:34:14;95018.59;;;10.50;87.20
63097;BME280;49185;42.320;23.198;2023-05-08T00:36:39;95017.72;;;10.44;86.45
63097;BME280;49185;42.320;23.198;2023-05-08T00:39:05;95023.88;;;10.61;85.49
63097;BME280;49185;42.320;23.198;2023-05-08T00:41:30;95020.94;;;10.80;84.44
63097;BME280;49185;42.320;23.198;2023-05-08T00:43:56;95023.84;;;10.95;83.54
63097;BME280;49185;42.320;23.198;2023-05-08T00:46:21;95018.78;;;10.77;83.99
63097;BME280;49185;42.320;23.198;2023-05-08T00:48:47;95026.13;;;10.70;84.11
63097;BME280;49185;42.320;23.198;2023-05-08T00:51:13;95033.06;;;10.71;83.59
63097;BME280;49185;42.320;23.198;2023-05-08T00:53:41;95024.50;;;10.23;85.48
63097;BME280;49185;42.320;23.198;2023-05-08T00:56:10;95030.97;;;9.98;86.68
63097;BME280;49185;42.320;23.198;2023-05-08T00:58:37;95031.81;;;9.87;87.26
63097;BME280;49185;42.320;23.198;2023-05-08T01:01:03;95027.53;;;9.86;86.92
63097;BME280;49185;42.320;23.198;2023-05-08T01:03:30;95046.53;;;9.78;86.96
63097;BME280;49185;42.320;23.198;2023-05-08T01:05:56;95041.22;;;9.78;87.64
63097;BME280;49185;42.320;23.198;2023-05-08T01:08:22;95035.47;;;9.69;88.61
63097;BME280;49185;42.320;23.198;2023-05-08T01:13:31;95036.28;;;9.58;88.43
63097;BME280;49185;42.320;23.198;2023-05-08T01:16:16;95039.41;;;9.55;88.64
63097;BME280;49185;42.320;23.198;2023-05-08T01:18:46;95040.78;;;9.45;88.83
63097;BME280;49185;42.320;23.198;2023-05-08T01:24:24;95039.31;;;9.49;88.05
63097;BME280;49185;42.320;23.198;2023-05-08T01:27:49;95034.22;;;9.48;88.07
63097;BME280;49185;42.320;23.198;2023-05-08T01:33:07;95026.66;;;9.28;88.61
63097;BME280;49185;42.320;23.198;2023-05-08T01:35:49;95036.25;;;9.17;89.07
63097;BME280;49185;42.320;23.198;2023-05-08T01:38:52;95037.94;;;9.11;89.52
63097;BME280;49185;42.320;23.198;2023-05-08T01:41:12;95034.25;;;9.12;89.47
63097;BME280;49185;42.320;23.198;2023-05-08T01:43:52;95036.34;;;9.10;89.35
63097;BME280;49185;42.320;23.198;2023-05-08T01:46:24;95032.28;;;9.08;89.33
63097;BME280;49185;42.320;23.198;2023-05-08T01:49:07;95025.50;;;9.00;89.64
63097;BME280;49185;42.320;23.198;2023-05-08T01:51:49;95022.97;;;9.05;89.93
63097;BME280;49185;42.320;23.198;2023-05-08T01:54:24;95021.34;;;9.16;88.44
63097;BME280;49185;42.320;23.198;2023-05-08T01:56:54;95022.38;;;9.03;89.55
63097;BME280;49185;42.320;23.198;2023-05-08T01:59:22;95021.56;;;9.15;88.99
63097;BME280;49185;42.320;23.198;2023-05-08T02:01:51;95022.13;;;9.40;87.74
63097;BME280;49185;42.320;23.198;2023-05-08T02:04:18;95033.59;;;9.17;88.32
63097;BME280;49185;42.320;23.198;2023-05-08T02:06:45;95021.94;;;8.95;89.92
63097;BME280;49185;42.320;23.198;2023-05-08T02:09:11;95026.06;;;8.90;89.74
63097;BME280;49185;42.320;23.198;2023-05-08T02:11:38;95026.63;;;9.04;90.40
63097;BME280;49185;42.320;23.198;2023-05-08T02:14:06;95026.88;;;8.91;91.31
63097;BME280;49185;42.320;23.198;2023-05-08T02:16:33;95027.09;;;8.66;92.00
63097;BME280;49185;42.320;23.198;2023-05-08T02:19:00;95033.88;;;8.50;92.74
63097;BME280;49185;42.320;23.198;2023-05-08T02:21:28;95032.34;;;8.42;93.24
63097;BME280;49185;42.320;23.198;2023-05-08T02:23:55;95029.47;;;8.44;94.21
63097;BME280;49185;42.320;23.198;2023-05-08T02:26:23;95034.16;;;8.42;93.88
63097;BME280;49185;42.320;23.198;2023-05-08T02:28:51;95030.63;;;8.48;93.53
63097;BME280;49185;42.320;23.198;2023-05-08T02:31:18;95027.38;;;8.46;93.24
63097;BME280;49185;42.320;23.198;2023-05-08T02:33:44;95040.19;;;8.49;93.78
63097;BME280;49185;42.320;23.198;2023-05-08T02:36:12;95042.75;;;8.67;93.29
63097;BME280;49185;42.320;23.198;2023-05-08T02:38:43;95044.75;;;8.72;93.14
63097;BME280;49185;42.320;23.198;2023-05-08T02:41:11;95057.97;;;8.60;92.97
63097;BME280;49185;42.320;23.198;2023-05-08T02:43:37;95052.38;;;8.38;93.50
63097;BME280;49185;42.320;23.198;2023-05-08T02:46:20;95050.03;;;8.72;92.37
63097;BME280;49185;42.320;23.198;2023-05-08T02:48:59;95052.22;;;8.63;92.62
63097;BME280;49185;42.320;23.198;2023-05-08T02:51:55;95051.00;;;9.01;91.16
63097;BME280;49185;42.320;23.198;2023-05-08T02:54:37;95048.75;;;8.74;91.36
63097;BME280;49185;42.320;23.198;2023-05-08T02:57:20;95053.69;;;8.47;92.96
63097;BME280;49185;42.320;23.198;2023-05-08T02:59:59;95054.56;;;8.41;93.57
63097;BME280;49185;42.320;23.198;2023-05-08T03:02:40;95057.00;;;8.43;93.42
63097;BME280;49185;42.320;23.198;2023-05-08T03:05:15;95051.69;;;8.43;93.28
63097;BME280;49185;42.320;23.198;2023-05-08T03:07:42;95049.13;;;8.36;93.32
63097;BME280;49185;42.320;23.198;2023-05-08T03:10:11;95054.34;;;8.43;93.05
63097;BME280;49185;42.320;23.198;2023-05-08T03:12:40;95054.47;;;8.48;93.12
63097;BME280;49185;42.320;23.198;2023-05-08T03:15:15;95056.13;;;8.49;92.92
63097;BME280;49185;42.320;23.198;2023-05-08T03:17:44;95058.13;;;8.77;92.41
63097;BME280;49185;42.320;23.198;2023-05-08T03:20:14;95053.19;;;9.16;89.27
63097;BME280;49185;42.320;23.198;2023-05-08T03:22:42;95055.03;;;9.39;87.15
63097;BME280;49185;42.320;23.198;2023-05-08T03:25:10;95066.00;;;8.84;88.97
63097;BME280;49185;42.320;23.198;2023-05-08T03:27:37;95074.22;;;8.52;91.32
63097;BME280;49185;42.320;23.198;2023-05-08T03:30:05;95065.19;;;8.41;92.19
63097;BME280;49185;42.320;23.198;2023-05-08T03:32:31;95069.66;;;8.41;92.40
63097;BME280;49185;42.320;23.198;2023-05-08T03:35:00;95077.91;;;8.51;92.94
63097;BME280;49185;42.320;23.198;2023-05-08T03:37:28;95070.44;;;8.60;92.39
63097;BME280;49185;42.320;23.198;2023-05-08T03:39:54;95063.66;;;8.76;91.56
63097;BME280;49185;42.320;23.198;2023-05-08T03:42:21;95069.19;;;8.98;90.92
63097;BME280;49185;42.320;23.198;2023-05-08T03:44:49;95069.47;;;9.20;89.85
63097;BME280;49185;42.320;23.198;2023-05-08T03:47:17;95064.47;;;9.47;88.96
63097;BME280;49185;42.320;23.198;2023-05-08T03:49:44;95069.28;;;10.14;85.14
63097;BME280;49185;42.320;23.198;2023-05-08T03:52:13;95074.03;;;10.12;85.11
63097;BME280;49185;42.320;23.198;2023-05-08T03:54:39;95079.69;;;10.16;84.60
63097;BME280;49185;42.320;23.198;2023-05-08T03:57:05;95070.91;;;10.15;84.60
63097;BME280;49185;42.320;23.198;2023-05-08T04:00:11;95073.44;;;10.22;83.94
63097;BME280;49185;42.320;23.198;2023-05-08T04:02:49;95077.06;;;10.04;85.15
63097;BME280;49185;42.320;23.198;2023-05-08T04:05:42;95073.34;;;10.05;85.40
63097;BME280;49185;42.320;23.198;2023-05-08T04:08:16;95077.06;;;10.04;84.88
63097;BME280;49185;42.320;23.198;2023-05-08T04:11:01;95078.50;;;10.23;84.81
63097;BME280;49185;42.320;23.198;2023-05-08T04:13:31;95068.53;;;10.31;84.41
63097;BME280;49185;42.320;23.198;2023-05-08T04:16:05;95078.09;;;10.60;83.28
63097;BME280;49185;42.320;23.198;2023-05-08T04:18:33;95082.25;;;10.85;82.03
63097;BME280;49185;42.320;23.198;2023-05-08T04:21:02;95067.34;;;11.01;81.35
63097;BME280;49185;42.320;23.198;2023-05-08T04:23:28;95077.00;;;11.41;80.40
63097;BME280;49185;42.320;23.198;2023-05-08T04:25:55;95068.19;;;11.80;79.43
63097;BME280;49185;42.320;23.198;2023-05-08T04:28:21;95075.06;;;12.20;77.83
63097;BME280;49185;42.320;23.198;2023-05-08T04:30:47;95075.03;;;12.96;73.98
63097;BME280;49185;42.320;23.198;2023-05-08T04:33:14;95079.13;;;13.41;71.82
63097;BME280;49185;42.320;23.198;2023-05-08T04:35:40;95080.19;;;13.45;72.49
63097;BME280;49185;42.320;23.198;2023-05-08T04:38:05;95071.94;;;13.47;72.57
63097;BME280;49185;42.320;23.198;2023-05-08T04:40:31;95071.81;;;14.42;69.54
63097;BME280;49185;42.320;23.198;2023-05-08T04:42:57;95079.13;;;15.60;64.97
63097;BME280;49185;42.320;23.198;2023-05-08T04:45:22;95059.09;;;17.41;59.02
63097;BME280;49185;42.320;23.198;2023-05-08T04:47:48;95063.94;;;17.98;56.84
63097;BME280;49185;42.320;23.198;2023-05-08T04:50:13;95069.06;;;19.65;51.53
63097;BME280;49185;42.320;23.198;2023-05-08T04:52:38;95076.94;;;18.96;52.39
63097;BME280;49185;42.320;23.198;2023-05-08T04:55:04;95074.63;;;18.89;53.00
63097;BME280;49185;42.320;23.198;2023-05-08T04:57:30;95071.63;;;19.89;50.46
63097;BME280;49185;42.320;23.198;2023-05-08T04:59:55;95068.63;;;19.91;50.39
63097;BME280;49185;42.320;23.198;2023-05-08T05:02:21;95069.25;;;20.16;49.79
63097;BME280;49185;42.320;23.198;2023-05-08T05:04:46;95063.19;;;20.46;49.35
63097;BME280;49185;42.320;23.198;2023-05-08T05:07:11;95058.91;;;21.18;46.87
63097;BME280;49185;42.320;23.198;2023-05-08T05:09:38;95064.03;;;21.20;48.53
63097;BME280;49185;42.320;23.198;2023-05-08T05:12:04;95056.31;;;20.91;49.70
63097;BME280;49185;42.320;23.198;2023-05-08T05:14:30;95065.47;;;19.23;53.60
63097;BME280;49185;42.320;23.198;2023-05-08T05:16:56;95061.75;;;19.19;56.92
63097;BME280;49185;42.320;23.198;2023-05-08T05:19:21;95063.81;;;19.88;54.19
63097;BME280;49185;42.320;23.198;2023-05-08T05:21:47;95059.19;;;19.28;56.69
63097;BME280;49185;42.320;23.198;2023-05-08T05:24:13;95058.38;;;18.13;59.08
63097;BME280;49185;42.320;23.198;2023-05-08T05:26:38;95058.69;;;18.31;60.57
63097;BME280;49185;42.320;23.198;2023-05-08T05:29:04;95052.94;;;18.37;59.48
63097;BME280;49185;42.320;23.198;2023-05-08T05:31:30;95057.72;;;19.96;56.13
63097;BME280;49185;42.320;23.198;2023-05-08T05:33:55;95057.41;;;21.12;52.51
63097;BME280;49185;42.320;23.198;2023-05-08T05:36:21;95059.78;;;23.23;46.60
63097;BME280;49185;42.320;23.198;2023-05-08T05:38:46;95049.41;;;23.98;44.38
63097;BME280;49185;42.320;23.198;2023-05-08T05:41:11;95059.56;;;23.63;44.54
63097;BME280;49185;42.320;23.198;2023-05-08T05:43:37;95054.97;;;24.02;42.88
63097;BME280;49185;42.320;23.198;2023-05-08T05:46:07;95052.28;;;23.93;43.11
63097;BME280;49185;42.320;23.198;2023-05-08T05:48:33;95049.78;;;22.40;46.75
63097;BME280;49185;42.320;23.198;2023-05-08T05:50:58;95047.09;;;22.48;45.88
63097;BME280;49185;42.320;23.198;2023-05-08T05:53:24;95047.22;;;21.86;47.83
63097;BME280;49185;42.320;23.198;2023-05-08T05:55:49;95047.06;;;20.69;49.74
63097;BME280;49185;42.320;23.198;2023-05-08T05:58:14;95051.31;;;20.84;50.84
63097;BME280;49185;42.320;23.198;2023-05-08T06:00:40;95054.72;;;20.25;52.91
63097;BME280;49185;42.320;23.198;2023-05-08T06:03:05;95051.00;;;19.94;53.06
63097;BME280;49185;42.320;23.198;2023-05-08T06:05:31;95042.38;;;20.47;50.51
63097;BME280;49185;42.320;23.198;2023-05-08T06:07:56;95036.88;;;20.89;49.81
63097;BME280;49185;42.320;23.198;2023-05-08T06:10:22;95037.72;;;21.66;48.46
63097;BME280;49185;42.320;23.198;2023-05-08T06:12:47;95041.03;;;24.93;41.60
63097;BME280;49185;42.320;23.198;2023-05-08T06:15:13;95050.59;;;25.99;38.38
63097;BME280;49185;42.320;23.198;2023-05-08T06:17:38;95049.78;;;24.56;41.23
63097;BME280;49185;42.320;23.198;2023-05-08T06:20:04;95058.16;;;23.04;43.86
63097;BME280;49185;42.320;23.198;2023-05-08T06:22:30;95063.84;;;22.02;47.51
63097;BME280;49185;42.320;23.198;2023-05-08T06:24:55;95061.97;;;22.11;47.02
63097;BME280;49185;42.320;23.198;2023-05-08T06:27:21;95052.31;;;21.87;48.93
63097;BME280;49185;42.320;23.198;2023-05-08T06:29:47;95052.28;;;23.20;45.29
63097;BME280;49185;42.320;23.198;2023-05-08T06:32:12;95051.13;;;23.38;44.73
63097;BME280;49185;42.320;23.198;2023-05-08T06:34:38;95049.25;;;23.04;44.92
63097;BME280;49185;42.320;23.198;2023-05-08T06:37:03;95056.41;;;24.38;43.50
63097;BME280;49185;42.320;23.198;2023-05-08T06:39:29;95041.19;;;27.11;37.91
63097;BME280;49185;42.320;23.198;2023-05-08T06:41:54;95054.09;;;26.98;38.06
63097;BME280;49185;42.320;23.198;2023-05-08T06:44:19;95054.81;;;27.23;37.21
63097;BME280;49185;42.320;23.198;2023-05-08T06:46:45;95049.75;;;25.41;39.46
63097;BME280;49185;42.320;23.198;2023-05-08T06:49:10;95052.75;;;25.93;37.47
63097;BME280;49185;42.320;23.198;2023-05-08T06:51:36;95055.84;;;25.25;37.55
63097;BME280;49185;42.320;23.198;2023-05-08T06:54:01;95051.19;;;25.59;38.56
63097;BME280;49185;42.320;23.198;2023-05-08T06:56:27;95060.66;;;24.56;39.47
63097;BME280;49185;42.320;23.198;2023-05-08T06:58:52;95054.00;;;24.06;41.38
63097;BME280;49185;42.320;23.198;2023-05-08T07:01:17;95055.78;;;23.38;41.26
63097;BME280;49185;42.320;23.198;2023-05-08T07:03:43;95051.19;;;24.83;39.20
63097;BME280;49185;42.320;23.198;2023-05-08T07:06:08;95059.50;;;25.29;38.50
63097;BME280;49185;42.320;23.198;2023-05-08T07:08:34;95053.84;;;24.92;40.37
63097;BME280;49185;42.320;23.198;2023-05-08T07:10:59;95050.69;;;24.31;41.83
63097;BME280;49185;42.320;23.198;2023-05-08T07:13:25;95045.13;;;22.23;45.56
63097;BME280;49185;42.320;23.198;2023-05-08T07:15:50;95053.97;;;23.59;42.34
63097;BME280;49185;42.320;23.198;2023-05-08T07:18:16;95050.06;;;23.86;42.09
63097;BME280;49185;42.320;23.198;2023-05-08T07:20:41;95048.63;;;24.28;41.39
63097;BME280;49185;42.320;23.198;2023-05-08T07:23:06;95040.78;;;23.23;43.71
63097;BME280;49185;42.320;23.198;2023-05-08T07:25:32;95048.66;;;24.78;41.35
63097;BME280;49185;42.320;23.198;2023-05-08T07:27:57;95052.56;;;25.65;39.47
63097;BME280;49185;42.320;23.198;2023-05-08T07:30:23;95062.13;;;24.75;39.43
63097;BME280;49185;42.320;23.198;2023-05-08T07:32:48;95045.84;;;23.50;43.73
63097;BME280;49185;42.320;23.198;2023-05-08T07:35:14;95052.13;;;23.07;45.68
63097;BME280;49185;42.320;23.198;2023-05-08T07:37:39;95046.34;;;22.65;47.31
63097;BME280;49185;42.320;23.198;2023-05-08T07:40:05;95048.44;;;23.29;44.27
63097;BME280;49185;42.320;23.198;2023-05-08T07:42:37;95050.16;;;24.07;42.61
63097;BME280;49185;42.320;23.198;2023-05-08T07:45:03;95048.56;;;24.06;40.96
63097;BME280;49185;42.320;23.198;2023-05-08T07:47:28;95054.13;;;22.49;45.01
63097;BME280;49185;42.320;23.198;2023-05-08T07:49:54;95055.47;;;21.27;47.33
63097;BME280;49185;42.320;23.198;2023-05-08T07:52:19;95057.78;;;21.19;48.42
63097;BME280;49185;42.320;23.198;2023-05-08T07:54:45;95045.69;;;22.94;44.79
63097;BME280;49185;42.320;23.198;2023-05-08T07:57:10;95040.63;;;22.75;44.65
63097;BME280;49185;42.320;23.198;2023-05-08T07:59:35;95045.03;;;22.54;46.71
63097;BME280;49185;42.320;23.198;2023-05-08T08:02:01;95045.34;;;25.15;39.57
63097;BME280;49185;42.320;23.198;2023-05-08T08:04:26;95047.66;;;25.46;39.73
63097;BME280;49185;42.320;23.198;2023-05-08T08:06:52;95044.03;;;23.81;41.03
63097;BME280;49185;42.320;23.198;2023-05-08T08:09:17;95041.03;;;24.42;42.10
63097;BME280;49185;42.320;23.198;2023-05-08T08:11:42;95041.41;;;22.76;44.28
63097;BME280;49185;42.320;23.198;2023-05-08T08:14:08;95043.53;;;23.79;41.72
63097;BME280;49185;42.320;23.198;2023-05-08T08:16:33;95041.78;;;23.74;42.06
63097;BME280;49185;42.320;23.198;2023-05-08T08:18:59;95037.13;;;23.10;43.37
63097;BME280;49185;42.320;23.198;2023-05-08T08:21:24;95052.38;;;23.49;43.83
63097;BME280;49185;42.320;23.198;2023-05-08T08:23:49;95044.47;;;23.27;42.66
63097;BME280;49185;42.320;23.198;2023-05-08T08:26:15;95043.16;;;22.54;45.29
63097;BME280;49185;42.320;23.198;2023-05-08T08:28:40;95042.53;;;23.36;43.08
63097;BME280;49185;42.320;23.198;2023-05-08T08:31:06;95039.66;;;23.15;44.56
63097;BME280;49185;42.320;23.198;2023-05-08T08:33:31;95036.94;;;21.42;49.27
63097;BME280;49185;42.320;23.198;2023-05-08T08:35:56;95038.19;;;22.08;48.39
63097;BME280;49185;42.320;23.198;2023-05-08T08:38:22;95046.28;;;22.30;46.49
63097;BME280;49185;42.320;23.198;2023-05-08T08:40:47;95039.59;;;22.36;48.63
63097;BME280;49185;42.320;23.198;2023-05-08T08:43:13;95041.22;;;21.97;47.49
63097;BME280;49185;42.320;23.198;2023-05-08T08:45:38;95037.22;;;21.95;48.14
63097;BME280;49185;42.320;23.198;2023-05-08T08:48:09;95041.25;;;22.72;45.25
63097;BME280;49185;42.320;23.198;2023-05-08T08:50:35;95048.03;;;21.95;47.50
63097;BME280;49185;42.320;23.198;2023-05-08T08:53:19;95046.06;;;21.78;48.09
63097;BME280;49185;42.320;23.198;2023-05-08T08:55:49;95040.78;;;22.13;45.93
63097;BME280;49185;42.320;23.198;2023-05-08T08:58:30;95049.47;;;21.92;47.33
63097;BME280;49185;42.320;23.198;2023-05-08T09:00:58;95041.31;;;21.52;49.45
63097;BME280;49185;42.320;23.198;2023-05-08T09:03:25;95048.41;;;22.11;47.00
63097;BME280;49185;42.320;23.198;2023-05-08T09:05:50;95043.50;;;22.22;47.90
63097;BME280;49185;42.320;23.198;2023-05-08T09:08:17;95039.34;;;23.08;46.13
63097;BME280;49185;42.320;23.198;2023-05-08T09:10:43;95035.53;;;23.09;47.27
63097;BME280;49185;42.320;23.198;2023-05-08T09:13:08;95039.03;;;23.18;46.96
63097;BME280;49185;42.320;23.198;2023-05-08T09:15:34;95040.66;;;23.75;46.06
63097;BME280;49185;42.320;23.198;2023-05-08T09:18:02;95046.28;;;24.47;41.46
63097;BME280;49185;42.320;23.198;2023-05-08T09:20:28;95047.50;;;23.25;43.26
63097;BME280;49185;42.320;23.198;2023-05-08T09:22:54;95046.97;;;22.53;45.40
63097;BME280;49185;42.320;23.198;2023-05-08T09:25:20;95045.53;;;22.07;45.82
63097;BME280;49185;42.320;23.198;2023-05-08T09:27:46;95056.41;;;20.85;52.34
63097;BME280;49185;42.320;23.198;2023-05-08T09:30:12;95048.81;;;20.88;53.69
63097;BME280;49185;42.320;23.198;2023-05-08T09:32:41;95049.38;;;19.65;55.70
63097;BME280;49185;42.320;23.198;2023-05-08T09:35:08;95043.59;;;19.25;57.20
63097;BME280;49185;42.320;23.198;2023-05-08T09:37:37;95045.97;;;18.55;60.37
63097;BME280;49185;42.320;23.198;2023-05-08T09:40:20;95037.44;;;18.29;59.87
63097;BME280;49185;42.320;23.198;2023-05-08T09:42:47;95032.41;;;18.23;61.57
63097;BME280;49185;42.320;23.198;2023-05-08T10:02:16;95021.13;;;17.48;70.96
63097;BME280;49185;42.320;23.198;2023-05-08T10:04:42;95008.09;;;17.31;71.24
63097;BME280;49185;42.320;23.198;2023-05-08T10:07:07;95001.59;;;17.61;72.25
63097;BME280;49185;42.320;23.198;2023-05-08T10:09:33;94993.16;;;18.16;71.31
63097;BME280;49185;42.320;23.198;2023-05-08T10:11:58;94994.03;;;18.50;70.61
63097;BME280;49185;42.320;23.198;2023-05-08T10:14:24;94989.19;;;19.04;68.17
63097;BME280;49185;42.320;23.198;2023-05-08T10:16:51;94984.34;;;19.33;68.76
63097;BME280;49185;42.320;23.198;2023-05-08T10:19:22;94977.81;;;19.95;63.75
63097;BME280;49185;42.320;23.198;2023-05-08T10:21:52;94980.78;;;20.21;59.31
63097;BME280;49185;42.320;23.198;2023-05-08T10:24:31;94970.88;;;20.67;58.04
63097;BME280;49185;42.320;23.198;2023-05-08T10:27:10;94976.25;;;21.43;51.67
63097;BME280;49185;42.320;23.198;2023-05-08T10:29:54;94975.50;;;22.84;45.07
63097;BME280;49185;42.320;23.198;2023-05-08T10:32:22;94978.47;;;23.35;42.99
63097;BME280;49185;42.320;23.198;2023-05-08T10:34:51;94977.03;;;23.38;45.61
63097;BME280;49185;42.320;23.198;2023-05-08T10:37:17;94976.63;;;22.74;46.52
63097;BME280;49185;42.320;23.198;2023-05-08T10:39:43;94972.63;;;22.81;47.49
63097;BME280;49185;42.320;23.198;2023-05-08T10:42:11;94972.44;;;23.21;42.80
63097;BME280;49185;42.320;23.198;2023-05-08T10:44:38;94959.22;;;22.75;45.93
63097;BME280;49185;42.320;23.198;2023-05-08T10:47:11;94963.34;;;23.17;43.91
63097;BME280;49185;42.320;23.198;2023-05-08T10:49:46;94963.34;;;22.99;45.59
63097;BME280;49185;42.320;23.198;2023-05-08T10:52:46;94952.66;;;23.11;45.19
63097;BME280;49185;42.320;23.198;2023-05-08T10:55:18;94954.34;;;23.34;44.07
63097;BME280;49185;42.320;23.198;2023-05-08T10:58:11;94949.00;;;23.07;43.95
63097;BME280;49185;42.320;23.198;2023-05-08T11:03:28;94948.84;;;23.12;42.70
63097;BME280;49185;42.320;23.198;2023-05-08T11:05:55;94946.03;;;23.86;42.18
63097;BME280;49185;42.320;23.198;2023-05-08T11:08:24;94941.50;;;23.60;42.76
63097;BME280;49185;42.320;23.198;2023-05-08T11:15:52;94934.50;;;24.19;42.67
63097;BME280;49185;42.320;23.198;2023-05-08T11:18:17;94934.84;;;23.87;42.71
63097;BME280;49185;42.320;23.198;2023-05-08T11:20:57;94932.25;;;22.79;45.54
63097;BME280;49185;42.320;23.198;2023-05-08T11:23:24;94930.75;;;21.94;47.27
63097;BME280;49185;42.320;23.198;2023-05-08T11:26:04;94924.97;;;21.70;47.50
63097;BME280;49185;42.320;23.198;2023-05-08T11:28:36;94914.38;;;22.08;45.73
63097;BME280;49185;42.320;23.198;2023-05-08T11:31:03;94915.63;;;23.54;44.58
63097;BME280;49185;42.320;23.198;2023-05-08T11:33:33;94912.19;;;24.47;41.34
63097;BME280;49185;42.320;23.198;2023-05-08T11:36:00;94901.06;;;24.94;39.79
63097;BME280;49185;42.320;23.198;2023-05-08T11:38:36;94895.06;;;26.89;37.27
63097;BME280;49185;42.320;23.198;2023-05-08T11:41:21;94897.97;;;27.56;36.43
63097;BME280;49185;42.320;23.198;2023-05-08T11:46:38;94884.22;;;24.67;38.92
63097;BME280;49185;42.320;23.198;2023-05-08T11:49:04;94886.75;;;26.17;38.51
63097;BME280;49185;42.320;23.198;2023-05-08T11:51:31;94884.91;;;26.33;38.51
63097;BME280;49185;42.320;23.198;2023-05-08T11:53:57;94882.72;;;28.77;33.46
63097;BME280;49185;42.320;23.198;2023-05-08T11:56:23;94876.94;;;28.08;31.80
63097;BME280;49185;42.320;23.198;2023-05-08T11:59:00;94882.44;;;26.56;33.71
63097;BME280;49185;42.320;23.198;2023-05-08T12:01:26;94875.03;;;27.13;36.20
63097;BME280;49185;42.320;23.198;2023-05-08T12:04:02;94867.56;;;26.82;34.42
63097;BME280;49185;42.320;23.198;2023-05-08T12:06:29;94869.69;;;26.88;35.55
63097;BME280;49185;42.320;23.198;2023-05-08T12:08:54;94858.81;;;27.68;31.78
63097;BME280;49185;42.320;23.198;2023-05-08T12:11:23;94862.19;;;27.61;31.69
63097;BME280;49185;42.320;23.198;2023-05-08T12:13:50;94849.25;;;26.82;35.14
63097;BME280;49185;42.320;23.198;2023-05-08T12:16:16;94849.16;;;28.06;32.56
63097;BME280;49185;42.320;23.198;2023-05-08T12:18:41;94850.16;;;29.15;27.78
63097;BME280;49185;42.320;23.198;2023-05-08T12:21:07;94846.22;;;27.32;33.05
63097;BME280;49185;42.320;23.198;2023-05-08T12:23:32;94841.47;;;27.28;32.30
63097;BME280;49185;42.320;23.198;2023-05-08T12:25:59;94836.16;;;25.29;33.85
63097;BME280;49185;42.320;23.198;2023-05-08T12:28:25;94841.34;;;24.64;36.92
63097;BME280;49185;42.320;23.198;2023-05-08T12:30:51;94837.47;;;24.32;37.52
63097;BME280;49185;42.320;23.198;2023-05-08T12:33:17;94843.44;;;23.74;37.90
63097;BME280;49185;42.320;23.198;2023-05-08T12:35:43;94841.91;;;23.94;37.60
63097;BME280;49185;42.320;23.198;2023-05-08T12:38:09;94836.06;;;24.04;39.82
63097;BME280;49185;42.320;23.198;2023-05-08T12:40:40;94830.91;;;24.12;39.61
63097;BME280;49185;42.320;23.198;2023-05-08T12:43:06;94819.56;;;23.88;38.86
63097;BME280;49185;42.320;23.198;2023-05-08T12:45:34;94816.78;;;24.18;39.91
63097;BME280;49185;42.320;23.198;2023-05-08T12:48:02;94812.66;;;25.25;37.48
63097;BME280;49185;42.320;23.198;2023-05-08T12:50:28;94806.75;;;25.47;34.18
63097;BME280;49185;42.320;23.198;2023-05-08T12:52:53;94808.38;;;24.44;37.39
63097;BME280;49185;42.320;23.198;2023-05-08T12:55:27;94805.97;;;23.67;38.93
63097;BME280;49185;42.320;23.198;2023-05-08T12:58:04;94800.00;;;24.71;39.06
63097;BME280;49185;42.320;23.198;2023-05-08T13:03:08;94792.16;;;24.36;38.45
63097;BME280;49185;42.320;23.198;2023-05-08T13:05:36;94795.53;;;23.99;39.05
63097;BME280;49185;42.320;23.198;2023-05-08T13:08:04;94787.88;;;23.42;39.58
63097;BME280;49185;42.320;23.198;2023-05-08T13:10:50;94789.25;;;23.27;42.41
63097;BME280;49185;42.320;23.198;2023-05-08T13:13:20;94788.03;;;23.45;38.88
63097;BME280;49185;42.320;23.198;2023-05-08T13:15:47;94770.31;;;23.90;39.50
63097;BME280;49185;42.320;23.198;2023-05-08T13:18:14;94775.00;;;24.23;39.69
63097;BME280;49185;42.320;23.198;2023-05-08T13:20:40;94764.56;;;23.92;38.53
63097;BME280;49185;42.320;23.198;2023-05-08T13:23:06;94765.72;;;23.40;38.00
63097;BME280;49185;42.320;23.198;2023-05-08T13:25:32;94757.97;;;23.72;38.39
63097;BME280;49185;42.320;23.198;2023-05-08T13:27:58;94760.88;;;24.88;36.93
63097;BME280;49185;42.320;23.198;2023-05-08T13:30:24;94760.63;;;24.22;38.28
63097;BME280;49185;42.320;23.198;2023-05-08T13:32:50;94758.06;;;23.84;38.84
63097;BME280;49185;42.320;23.198;2023-05-08T13:35:17;94766.69;;;23.35;40.44
63097;BME280;49185;42.320;23.198;2023-05-08T13:37:42;94758.22;;;23.07;42.13